createdAt,value
2024-01-20T00:00:03.285Z,0
2024-01-20T00:01:17.579Z,0
2024-01-20T00:02:31.873Z,0
2024-01-20T00:03:46.167Z,0
2024-01-20T00:05:00.460Z,0
2024-01-20T00:06:14.754Z,0
2024-01-20T00:07:29.048Z,0
2024-01-20T00:08:43.342Z,0
2024-01-20T00:09:57.635Z,0
2024-01-20T00:11:10.945Z,0
2024-01-20T00:12:25.239Z,0
2024-01-20T00:13:39.533Z,0
2024-01-20T00:14:53.827Z,0
2024-01-20T00:16:08.121Z,0
2024-01-20T00:17:22.414Z,0
2024-01-20T00:18:36.708Z,0
2024-01-20T00:19:51.002Z,0
2024-01-20T00:21:05.295Z,0
2024-01-20T00:22:19.590Z,0
2024-01-20T00:23:33.883Z,0
2024-01-20T00:24:48.177Z,0
2024-01-20T00:26:02.471Z,0
2024-01-20T00:27:15.781Z,0
2024-01-20T00:28:30.074Z,0
2024-01-20T00:29:44.368Z,0
2024-01-20T00:30:58.662Z,0
2024-01-20T00:32:12.956Z,0
2024-01-20T00:33:27.250Z,0
2024-01-20T00:34:41.544Z,0
2024-01-20T00:35:55.838Z,0
2024-01-20T00:37:10.131Z,0
2024-01-20T00:38:24.425Z,0
2024-01-20T00:39:38.719Z,0
2024-01-20T00:40:53.013Z,0
2024-01-20T00:42:07.307Z,0
2024-01-20T00:43:20.616Z,0
2024-01-20T00:44:34.911Z,0
2024-01-20T00:45:49.204Z,0
2024-01-20T00:47:03.498Z,0
2024-01-20T00:48:17.792Z,0
2024-01-20T00:49:32.086Z,0
2024-01-20T00:50:46.380Z,0
2024-01-20T00:52:00.673Z,0
2024-01-20T00:53:14.967Z,0
2024-01-20T00:54:29.261Z,0
2024-01-20T00:55:43.555Z,0
2024-01-20T00:56:57.849Z,0
2024-01-20T00:58:12.143Z,0
2024-01-20T00:59:25.453Z,0
2024-01-20T01:00:39.746Z,0
2024-01-20T01:01:54.040Z,0
2024-01-20T01:03:08.334Z,0
2024-01-20T01:04:22.628Z,0
2024-01-20T01:05:36.891Z,0
2024-01-20T01:06:51.216Z,0
2024-01-20T01:08:05.509Z,0
2024-01-20T01:09:19.803Z,0
2024-01-20T01:10:34.097Z,0
2024-01-20T01:11:48.391Z,0
2024-01-20T01:13:02.685Z,0
2024-01-20T01:14:16.978Z,0
2024-01-20T01:15:30.288Z,0
2024-01-20T01:16:44.583Z,0
2024-01-20T01:17:58.876Z,0
2024-01-20T01:19:13.170Z,0
2024-01-20T01:20:27.464Z,0
2024-01-20T01:21:41.758Z,0
2024-01-20T01:22:56.052Z,0
2024-01-20T01:24:10.345Z,0
2024-01-20T01:25:24.639Z,0
2024-01-20T01:26:38.933Z,0
2024-01-20T01:27:53.227Z,0
2024-01-20T01:29:07.521Z,0
2024-01-20T01:30:21.815Z,0
2024-01-20T01:31:35.125Z,0
2024-01-20T01:32:49.419Z,0
2024-01-20T01:34:02.734Z,0
2024-01-20T01:35:16.044Z,0
2024-01-20T01:36:30.337Z,0
2024-01-20T01:37:44.631Z,0
2024-01-20T01:38:58.925Z,0
2024-01-20T01:40:13.219Z,0
2024-01-20T01:41:27.513Z,0
2024-01-20T01:42:41.807Z,0
2024-01-20T01:43:56.101Z,0
2024-01-20T01:45:10.394Z,0
2024-01-20T01:46:24.688Z,0
2024-01-20T01:47:38.982Z,0
2024-01-20T01:48:53.276Z,0
2024-01-20T01:50:07.570Z,0
2024-01-20T01:51:20.880Z,0
2024-01-20T01:52:35.174Z,0
2024-01-20T01:53:49.467Z,0
2024-01-20T01:55:03.761Z,0
2024-01-20T01:56:18.055Z,0
2024-01-20T01:57:32.349Z,0
2024-01-20T01:58:45.664Z,0
2024-01-20T01:59:58.979Z,0
2024-01-20T02:01:12.289Z,0
2024-01-20T02:02:26.583Z,0
2024-01-20T02:03:40.877Z,0
2024-01-20T02:04:55.171Z,0
2024-01-20T02:06:09.465Z,0
2024-01-20T02:07:23.758Z,0
2024-01-20T02:08:38.052Z,0
2024-01-20T02:09:52.346Z,0
2024-01-20T02:11:06.640Z,0
2024-01-20T02:12:20.934Z,0
2024-01-20T02:14:49.522Z,0
2024-01-20T02:16:03.815Z,0
2024-01-20T02:17:17.125Z,0
2024-01-20T02:18:31.419Z,0
2024-01-20T02:19:45.713Z,0
2024-01-20T02:21:00.007Z,0
2024-01-20T02:22:14.301Z,0
2024-01-20T02:23:28.594Z,0
2024-01-20T02:24:41.909Z,0
2024-01-20T02:25:56.203Z,0
2024-01-20T02:27:10.497Z,0
2024-01-20T02:28:24.791Z,0
2024-01-20T02:29:39.086Z,0
2024-01-20T02:30:53.380Z,0
2024-01-20T02:32:07.674Z,0
2024-01-20T02:33:21.967Z,0
2024-01-20T02:34:36.261Z,0
2024-01-20T02:35:50.555Z,0
2024-01-20T02:37:04.849Z,0
2024-01-20T02:38:19.143Z,0
2024-01-20T02:39:33.437Z,0
2024-01-20T02:40:46.747Z,0
2024-01-20T02:42:01.041Z,0
2024-01-20T02:43:15.334Z,0
2024-01-20T02:44:29.628Z,0
2024-01-20T02:45:43.922Z,0
2024-01-20T02:46:58.216Z,0
2024-01-20T02:48:12.510Z,0
2024-01-20T02:49:26.804Z,0
2024-01-20T02:50:41.097Z,0
2024-01-20T02:51:55.391Z,0
2024-01-20T02:53:09.685Z,0
2024-01-20T02:54:23.979Z,0
2024-01-20T02:55:38.272Z,0
2024-01-20T02:56:51.582Z,0
2024-01-20T02:58:05.876Z,0
2024-01-20T02:59:20.170Z,0
2024-01-20T03:00:33.485Z,0
2024-01-20T03:01:46.795Z,0
2024-01-20T03:03:01.089Z,0
2024-01-20T03:04:15.382Z,0
2024-01-20T03:05:29.661Z,0
2024-01-20T03:06:43.970Z,0
2024-01-20T03:07:58.263Z,0
2024-01-20T03:09:12.557Z,0
2024-01-20T03:10:26.851Z,0
2024-01-20T03:11:41.145Z,0
2024-01-20T03:12:55.439Z,0
2024-01-20T03:14:09.732Z,0
2024-01-20T03:15:24.026Z,0
2024-01-20T03:16:38.320Z,0
2024-01-20T03:17:51.630Z,0
2024-01-20T03:19:05.923Z,0
2024-01-20T03:20:20.187Z,0
2024-01-20T03:21:34.511Z,0
2024-01-20T03:22:48.805Z,0
2024-01-20T03:24:03.098Z,0
2024-01-20T03:25:16.414Z,0
2024-01-20T03:26:29.723Z,0
2024-01-20T03:27:44.017Z,0
2024-01-20T03:28:58.311Z,0
2024-01-20T03:30:12.583Z,0
2024-01-20T03:31:26.899Z,0
2024-01-20T03:32:41.193Z,0
2024-01-20T03:33:55.487Z,0
2024-01-20T03:35:09.758Z,0
2024-01-20T03:36:24.074Z,0
2024-01-20T03:38:52.662Z,0
2024-01-20T03:40:06.956Z,0
2024-01-20T03:41:21.249Z,0
2024-01-20T03:42:34.532Z,0
2024-01-20T03:43:48.853Z,0
2024-01-20T03:45:03.146Z,0
2024-01-20T03:46:17.440Z,0
2024-01-20T03:47:31.734Z,0
2024-01-20T03:48:46.028Z,0
2024-01-20T03:51:14.615Z,0
2024-01-20T03:52:28.909Z,0
2024-01-20T03:53:43.203Z,0
2024-01-20T03:54:57.496Z,0
2024-01-20T03:56:11.790Z,0
2024-01-20T03:57:26.084Z,0
2024-01-20T03:58:39.394Z,0
2024-01-20T03:59:53.688Z,0
2024-01-20T04:01:07.982Z,0
2024-01-20T04:02:22.276Z,0
2024-01-20T04:03:36.570Z,0
2024-01-20T04:04:50.844Z,0
2024-01-20T04:06:05.157Z,0
2024-01-20T04:07:18.472Z,0
2024-01-20T04:08:31.787Z,0
2024-01-20T04:09:45.097Z,0
2024-01-20T04:10:59.391Z,0
2024-01-20T04:12:13.685Z,0
2024-01-20T04:13:27.979Z,0
2024-01-20T04:14:42.273Z,0
2024-01-20T04:17:10.860Z,0
2024-01-20T04:18:25.154Z,0
2024-01-20T04:19:39.448Z,0
2024-01-20T04:20:53.742Z,0
2024-01-20T04:22:08.035Z,0
2024-01-20T04:23:22.329Z,0
2024-01-20T04:24:36.623Z,0
2024-01-20T04:25:50.916Z,0
2024-01-20T04:27:04.226Z,0
2024-01-20T04:28:18.520Z,0
2024-01-20T04:29:32.814Z,0
2024-01-20T04:30:47.108Z,0
2024-01-20T04:32:01.402Z,0
2024-01-20T04:33:15.695Z,0
2024-01-20T04:34:29.989Z,0
2024-01-20T04:35:44.283Z,0
2024-01-20T04:36:58.577Z,0
2024-01-20T04:38:12.870Z,0
2024-01-20T04:39:26.185Z,0
2024-01-20T04:40:39.495Z,0
2024-01-20T04:41:53.789Z,0
2024-01-20T04:43:08.083Z,0
2024-01-20T04:44:22.377Z,0
2024-01-20T04:45:36.670Z,0
2024-01-20T04:46:50.964Z,0
2024-01-20T04:48:05.258Z,0
2024-01-20T04:49:19.552Z,0
2024-01-20T04:50:33.845Z,0
2024-01-20T04:51:48.139Z,0
2024-01-20T04:53:02.433Z,0
2024-01-20T04:54:16.727Z,0
2024-01-20T04:55:31.021Z,0
2024-01-20T04:56:44.330Z,0
2024-01-20T04:57:58.624Z,0
2024-01-20T04:59:12.918Z,0
2024-01-20T05:00:27.212Z,0
2024-01-20T05:01:41.505Z,0
2024-01-20T05:02:55.799Z,0
2024-01-20T05:04:09.114Z,0
2024-01-20T05:05:22.429Z,0
2024-01-20T05:06:35.739Z,0
2024-01-20T05:07:50.033Z,0
2024-01-20T05:09:04.327Z,0
2024-01-20T05:10:18.621Z,0
2024-01-20T05:12:47.208Z,0
2024-01-20T05:14:01.502Z,0
2024-01-20T05:15:15.796Z,0
2024-01-20T05:16:30.089Z,0
2024-01-20T05:17:44.383Z,0
2024-01-20T05:18:58.677Z,0
2024-01-20T05:20:12.971Z,0
2024-01-20T05:21:27.265Z,0
2024-01-20T05:22:40.574Z,0
2024-01-20T05:23:54.868Z,0
2024-01-20T05:25:09.162Z,0
2024-01-20T05:26:23.456Z,0
2024-01-20T05:27:37.749Z,0
2024-01-20T05:28:52.043Z,0
2024-01-20T05:30:06.337Z,0
2024-01-20T05:31:20.631Z,0
2024-01-20T05:32:34.925Z,0
2024-01-20T05:33:49.218Z,0
2024-01-20T05:35:03.512Z,0
2024-01-20T05:36:17.806Z,0
2024-01-20T05:37:32.100Z,0
2024-01-20T05:38:45.409Z,0
2024-01-20T05:39:59.703Z,0
2024-01-20T05:41:13.018Z,0
2024-01-20T05:42:26.328Z,0
2024-01-20T05:43:40.622Z,0
2024-01-20T05:44:54.903Z,0
2024-01-20T05:46:09.210Z,0
2024-01-20T05:47:23.503Z,0
2024-01-20T05:48:37.797Z,0
2024-01-20T05:49:52.091Z,0
2024-01-20T05:51:06.384Z,0
2024-01-20T05:52:20.678Z,0
2024-01-20T05:53:34.941Z,0
2024-01-20T05:54:49.266Z,0
2024-01-20T05:56:03.560Z,0
2024-01-20T05:57:17.854Z,0
2024-01-20T05:58:31.163Z,0
2024-01-20T05:59:45.457Z,0
2024-01-20T06:00:59.732Z,0
2024-01-20T06:02:14.045Z,0
2024-01-20T06:03:28.338Z,0
2024-01-20T06:04:42.633Z,0
2024-01-20T06:05:56.926Z,0
2024-01-20T06:07:11.220Z,0
2024-01-20T06:08:25.514Z,0
2024-01-20T06:09:39.808Z,0
2024-01-20T06:10:53.123Z,0
2024-01-20T06:12:06.438Z,0
2024-01-20T06:13:19.748Z,0
2024-01-20T06:14:34.042Z,0
2024-01-20T06:15:48.304Z,0
2024-01-20T06:17:02.575Z,1
2024-01-20T06:18:16.870Z,0
2024-01-20T06:19:31.120Z,1
2024-01-20T06:20:45.360Z,1
2024-01-20T06:21:59.654Z,0
2024-01-20T06:23:13.949Z,0
2024-01-20T06:24:28.243Z,0
2024-01-20T06:25:42.525Z,0
2024-01-20T06:26:56.789Z,2
2024-01-20T06:28:11.029Z,1
2024-01-20T06:29:24.285Z,1
2024-01-20T06:30:38.525Z,1
2024-01-20T06:31:52.765Z,1
2024-01-20T06:33:06.026Z,1
2024-01-20T06:34:20.265Z,2
2024-01-20T06:35:34.505Z,3
2024-01-20T06:36:47.766Z,3
2024-01-20T06:38:01.022Z,3
2024-01-20T06:39:15.262Z,4
2024-01-20T06:40:29.502Z,5
2024-01-20T06:41:43.742Z,6
2024-01-20T06:42:57.982Z,6
2024-01-20T06:44:12.221Z,8
2024-01-20T06:45:26.461Z,9
2024-01-20T06:46:40.701Z,11
2024-01-20T06:47:54.941Z,12
2024-01-20T06:49:09.180Z,14
2024-01-20T06:51:37.660Z,23
2024-01-20T06:52:51.900Z,21
2024-01-20T06:54:05.156Z,33
2024-01-20T06:55:19.396Z,40
2024-01-20T06:56:33.636Z,47
2024-01-20T06:57:47.876Z,54
2024-01-20T06:59:02.115Z,61
2024-01-20T07:00:16.355Z,71
2024-01-20T07:01:30.595Z,84
2024-01-20T07:02:43.856Z,96
2024-01-20T07:03:57.112Z,104
2024-01-20T07:05:11.352Z,117
2024-01-20T07:06:25.592Z,131
2024-01-20T07:07:39.832Z,144
2024-01-20T07:08:54.072Z,156
2024-01-20T07:10:08.311Z,179
2024-01-20T07:11:22.551Z,203
2024-01-20T07:12:36.791Z,219
2024-01-20T07:13:51.031Z,235
2024-01-20T07:15:05.271Z,254
2024-01-20T07:16:19.511Z,281
2024-01-20T07:17:33.751Z,293
2024-01-20T07:18:47.990Z,316
2024-01-20T07:20:02.230Z,340
2024-01-20T07:21:15.486Z,365
2024-01-20T07:22:29.726Z,386
2024-01-20T07:23:43.965Z,411
2024-01-20T07:26:12.445Z,435
2024-01-20T07:27:26.685Z,431
2024-01-20T07:28:40.925Z,470
2024-01-20T07:29:55.165Z,465
2024-01-20T07:31:08.426Z,455
2024-01-20T07:32:21.682Z,447
2024-01-20T07:33:35.921Z,427
2024-01-20T07:34:50.161Z,394
2024-01-20T07:36:04.401Z,368
2024-01-20T07:37:18.641Z,397
2024-01-20T07:38:32.880Z,486
2024-01-20T07:39:47.121Z,454
2024-01-20T07:41:01.360Z,499
2024-01-20T07:42:15.600Z,499
2024-01-20T07:43:29.840Z,544
2024-01-20T07:44:44.079Z,581
2024-01-20T07:45:58.319Z,681
2024-01-20T07:47:12.559Z,630
2024-01-20T07:48:25.815Z,654
2024-01-20T07:49:40.054Z,763
2024-01-20T07:50:54.294Z,792
2024-01-20T07:52:08.534Z,785
2024-01-20T07:53:22.774Z,762
2024-01-20T07:54:37.013Z,842
2024-01-20T07:55:50.274Z,901
2024-01-20T07:57:03.530Z,955
2024-01-20T07:58:17.769Z,999
2024-01-20T07:59:32.009Z,1012
2024-01-20T08:00:46.249Z,1025
2024-01-20T08:02:00.488Z,1096
2024-01-20T08:03:14.728Z,1153
2024-01-20T08:04:28.968Z,1196
2024-01-20T08:05:43.207Z,1272
2024-01-20T08:06:57.416Z,1331
2024-01-20T08:08:11.686Z,1329
2024-01-20T08:09:25.926Z,1172
2024-01-20T08:10:40.165Z,1343
2024-01-20T08:11:54.405Z,1404
2024-01-20T08:13:07.660Z,1436
2024-01-20T08:14:21.900Z,1496
2024-01-20T08:15:36.141Z,1538
2024-01-20T08:16:50.380Z,1577
2024-01-20T08:18:04.620Z,1625
2024-01-20T08:19:18.859Z,1665
2024-01-20T08:20:33.099Z,1674
2024-01-20T08:21:47.338Z,1687
2024-01-20T08:23:01.578Z,1798
2024-01-20T08:24:15.817Z,1832
2024-01-20T08:25:30.057Z,1868
2024-01-20T08:26:44.296Z,1850
2024-01-20T08:27:58.536Z,1976
2024-01-20T08:29:11.791Z,1929
2024-01-20T08:30:26.031Z,1963
2024-01-20T08:31:40.270Z,2011
2024-01-20T08:32:54.509Z,2084
2024-01-20T08:34:08.749Z,2048
2024-01-20T08:35:22.989Z,2137
2024-01-20T08:36:37.228Z,2293
2024-01-20T08:37:51.467Z,2011
2024-01-20T08:39:05.707Z,2279
2024-01-20T08:40:19.946Z,3106
2024-01-20T08:41:34.185Z,1505
2024-01-20T08:42:48.425Z,3325
2024-01-20T08:44:02.664Z,1155
2024-01-20T08:45:15.920Z,2229
2024-01-20T08:46:30.159Z,1875
2024-01-20T08:47:44.399Z,2439
2024-01-20T08:48:58.638Z,2585
2024-01-20T08:50:12.877Z,2324
2024-01-20T08:51:27.117Z,2093
2024-01-20T08:52:41.356Z,2504
2024-01-20T08:53:55.595Z,3057
2024-01-20T08:55:09.835Z,3505
2024-01-20T08:56:24.044Z,3009
2024-01-20T08:57:38.144Z,3776
2024-01-20T08:58:52.554Z,1087
2024-01-20T09:00:06.793Z,3454
2024-01-20T09:01:20.049Z,3554
2024-01-20T09:02:34.288Z,2755
2024-01-20T09:03:48.527Z,2212
2024-01-20T09:05:02.766Z,1919
2024-01-20T09:06:17.006Z,3007
2024-01-20T09:07:31.245Z,910
2024-01-20T09:08:45.485Z,4573
2024-01-20T09:09:59.724Z,1493
2024-01-20T09:11:13.964Z,1798
2024-01-20T09:12:28.203Z,3042
2024-01-20T09:13:42.443Z,2511
2024-01-20T09:14:56.682Z,4565
2024-01-20T09:17:25.161Z,2112
2024-01-20T09:18:38.416Z,1117
2024-01-20T09:19:52.655Z,3612
2024-01-20T09:21:06.895Z,3006
2024-01-20T09:22:21.134Z,1090
2024-01-20T09:23:35.373Z,3873
2024-01-20T09:24:49.613Z,2644
2024-01-20T09:26:03.852Z,919
2024-01-20T09:27:18.091Z,4782
2024-01-20T09:28:32.331Z,2859
2024-01-20T09:29:46.570Z,2424
2024-01-20T09:31:00.809Z,2323
2024-01-20T09:32:15.048Z,1225
2024-01-20T09:33:29.288Z,2955
2024-01-20T09:34:42.543Z,2486
2024-01-20T09:35:56.782Z,1138
2024-01-20T09:37:11.022Z,3028
2024-01-20T09:38:25.261Z,3092
2024-01-20T09:39:39.501Z,2837
2024-01-20T09:40:53.740Z,3076
2024-01-20T09:42:07.979Z,2796
2024-01-20T09:43:22.218Z,3323
2024-01-20T09:44:36.457Z,3382
2024-01-20T09:45:50.697Z,3047
2024-01-20T09:47:04.936Z,5075
2024-01-20T09:48:19.175Z,2077
2024-01-20T09:49:33.415Z,2853
2024-01-20T09:50:46.670Z,2567
2024-01-20T09:52:00.909Z,3609
2024-01-20T09:53:15.148Z,3769
2024-01-20T09:54:29.387Z,4877
2024-01-20T09:55:43.626Z,1094
2024-01-20T09:56:57.865Z,4683
2024-01-20T09:58:12.105Z,1077
2024-01-20T09:59:26.344Z,3091
2024-01-20T10:00:40.583Z,3036
2024-01-20T10:01:54.822Z,2997
2024-01-20T10:03:09.061Z,3742
2024-01-20T10:04:23.301Z,2546
2024-01-20T10:05:37.540Z,3161
2024-01-20T10:06:50.795Z,2951
2024-01-20T10:08:05.034Z,3007
2024-01-20T10:09:19.273Z,3065
2024-01-20T10:10:33.512Z,3059
2024-01-20T10:11:47.752Z,3041
2024-01-20T10:13:01.991Z,3027
2024-01-20T10:14:16.230Z,3014
2024-01-20T10:15:30.469Z,2950
2024-01-20T10:16:44.708Z,2973
2024-01-20T10:17:58.947Z,2982
2024-01-20T10:19:13.186Z,2920
2024-01-20T10:20:27.425Z,2936
2024-01-20T10:21:41.665Z,2893
2024-01-20T10:22:54.920Z,2905
2024-01-20T10:24:09.159Z,2965
2024-01-20T10:25:23.398Z,2797
2024-01-20T10:26:37.637Z,2892
2024-01-20T10:27:51.876Z,2833
2024-01-20T10:29:06.115Z,2835
2024-01-20T10:30:20.354Z,2795
2024-01-20T10:31:34.593Z,2805
2024-01-20T10:32:48.833Z,2802
2024-01-20T10:34:03.072Z,2868
2024-01-20T10:35:17.311Z,2798
2024-01-20T10:36:31.550Z,2891
2024-01-20T10:37:45.789Z,2902
2024-01-20T10:38:59.044Z,2849
2024-01-20T10:40:13.283Z,2958
2024-01-20T10:41:26.543Z,2944
2024-01-20T10:42:40.782Z,3031
2024-01-20T10:43:55.021Z,2983
2024-01-20T10:45:09.261Z,3014
2024-01-20T10:46:23.501Z,3034
2024-01-20T10:47:37.740Z,3036
2024-01-20T10:48:51.979Z,3067
2024-01-20T10:50:06.218Z,3092
2024-01-20T10:51:20.457Z,3084
2024-01-20T10:52:34.696Z,3149
2024-01-20T10:53:48.935Z,3149
2024-01-20T10:55:03.174Z,3186
2024-01-20T10:56:17.414Z,3191
2024-01-20T10:57:30.669Z,3159
2024-01-20T10:58:44.908Z,3201
2024-01-20T10:59:59.148Z,3223
2024-01-20T11:01:13.387Z,3207
2024-01-20T11:02:27.626Z,3191
2024-01-20T11:03:41.865Z,3244
2024-01-20T11:04:56.104Z,3244
2024-01-20T11:06:10.343Z,3270
2024-01-20T11:07:24.583Z,3249
2024-01-20T11:08:38.822Z,3237
2024-01-20T11:09:53.061Z,3271
2024-01-20T11:11:07.300Z,3258
2024-01-20T11:12:21.539Z,3305
2024-01-20T11:13:34.794Z,3301
2024-01-20T11:14:49.033Z,3325
2024-01-20T11:16:03.272Z,3319
2024-01-20T11:17:17.511Z,3318
2024-01-20T11:18:31.594Z,3352
2024-01-20T11:19:45.990Z,3338
2024-01-20T11:21:00.229Z,3374
2024-01-20T11:22:14.468Z,3350
2024-01-20T11:23:28.707Z,3370
2024-01-20T11:24:42.946Z,3377
2024-01-20T11:25:57.185Z,3390
2024-01-20T11:27:11.424Z,3390
2024-01-20T11:28:25.663Z,3400
2024-01-20T11:29:38.765Z,3379
2024-01-20T11:30:53.158Z,3409
2024-01-20T11:32:07.397Z,3398
2024-01-20T11:33:21.636Z,3410
2024-01-20T11:34:35.875Z,3412
2024-01-20T11:35:50.114Z,3394
2024-01-20T11:38:18.593Z,3401
2024-01-20T11:39:32.832Z,3416
2024-01-20T11:40:47.071Z,3413
2024-01-20T11:42:01.310Z,3436
2024-01-20T11:43:15.549Z,3384
2024-01-20T11:44:29.788Z,3421
2024-01-20T11:45:43.044Z,3440
2024-01-20T11:46:57.284Z,3414
2024-01-20T11:48:11.523Z,3412
2024-01-20T11:49:25.762Z,3458
2024-01-20T11:50:40.001Z,3439
2024-01-20T11:51:54.240Z,3432
2024-01-20T11:53:08.479Z,3456
2024-01-20T11:54:22.719Z,3471
2024-01-20T11:55:36.958Z,3457
2024-01-20T11:56:51.197Z,3465
2024-01-20T11:58:05.436Z,3472
2024-01-20T11:59:19.675Z,3456
2024-01-20T12:00:33.915Z,3486
2024-01-20T12:01:47.170Z,3477
2024-01-20T12:03:01.409Z,3492
2024-01-20T12:04:15.648Z,3496
2024-01-20T12:05:29.887Z,3488
2024-01-20T12:06:44.126Z,3492
2024-01-20T12:07:58.365Z,3507
2024-01-20T12:09:12.604Z,3487
2024-01-20T12:10:26.845Z,3457
2024-01-20T12:11:41.084Z,3473
2024-01-20T12:12:55.323Z,3481
2024-01-20T12:14:09.562Z,3477
2024-01-20T12:15:23.801Z,3473
2024-01-20T12:16:38.040Z,3469
2024-01-20T12:17:51.295Z,3453
2024-01-20T12:19:05.534Z,3447
2024-01-20T12:20:19.773Z,3463
2024-01-20T12:21:34.013Z,3443
2024-01-20T12:22:48.252Z,3423
2024-01-20T12:24:02.491Z,3436
2024-01-20T12:25:16.730Z,3421
2024-01-20T12:26:30.969Z,3428
2024-01-20T12:27:45.208Z,3413
2024-01-20T12:28:59.447Z,3423
2024-01-20T12:30:13.686Z,3415
2024-01-20T12:32:42.165Z,3381
2024-01-20T12:33:55.420Z,3397
2024-01-20T12:35:09.659Z,3381
2024-01-20T12:36:23.728Z,3381
2024-01-20T12:37:38.137Z,3375
2024-01-20T12:38:52.376Z,3378
2024-01-20T12:40:06.615Z,3347
2024-01-20T12:41:20.854Z,3365
2024-01-20T12:42:35.094Z,3325
2024-01-20T12:43:49.333Z,3347
2024-01-20T12:45:03.572Z,3325
2024-01-20T12:46:17.641Z,3319
2024-01-20T12:47:32.050Z,3293
2024-01-20T12:48:46.289Z,3300
2024-01-20T12:49:59.544Z,3271
2024-01-20T12:51:13.622Z,3278
2024-01-20T12:52:28.022Z,3261
2024-01-20T12:53:42.262Z,3235
2024-01-20T12:54:56.501Z,3241
2024-01-20T12:56:10.740Z,3230
2024-01-20T12:57:24.979Z,3217
2024-01-20T12:58:39.218Z,3202
2024-01-20T12:59:53.457Z,3187
2024-01-20T13:01:07.696Z,3186
2024-01-20T13:02:21.935Z,3160
2024-01-20T13:03:36.175Z,3147
2024-01-20T13:04:50.414Z,3133
2024-01-20T13:07:17.908Z,3116
2024-01-20T13:08:32.147Z,3097
2024-01-20T13:09:46.215Z,3093
2024-01-20T13:11:00.625Z,3066
2024-01-20T13:12:14.864Z,3050
2024-01-20T13:13:28.950Z,3040
2024-01-20T13:14:43.343Z,3016
2024-01-20T13:15:57.429Z,3007
2024-01-20T13:17:11.821Z,3000
2024-01-20T13:18:26.060Z,2989
2024-01-20T13:19:40.299Z,2963
2024-01-20T13:20:54.538Z,2936
2024-01-20T13:22:07.793Z,2929
2024-01-20T13:23:22.032Z,2911
2024-01-20T13:24:36.271Z,2899
2024-01-20T13:25:50.511Z,2878
2024-01-20T13:27:04.750Z,2856
2024-01-20T13:28:18.839Z,2843
2024-01-20T13:29:33.228Z,2838
2024-01-20T13:30:47.467Z,2821
2024-01-20T13:32:01.706Z,2803
2024-01-20T13:33:15.945Z,2775
2024-01-20T13:34:30.184Z,2768
2024-01-20T13:36:58.662Z,2733
2024-01-20T13:38:11.918Z,2689
2024-01-20T13:39:26.157Z,2689
2024-01-20T13:40:40.396Z,2662
2024-01-20T13:41:54.635Z,2657
2024-01-20T13:43:08.704Z,2625
2024-01-20T13:44:23.113Z,2595
2024-01-20T13:45:37.352Z,2594
2024-01-20T13:46:51.591Z,2542
2024-01-20T13:48:05.830Z,2537
2024-01-20T13:49:20.069Z,2522
2024-01-20T13:50:34.157Z,2496
2024-01-20T13:51:48.547Z,2446
2024-01-20T13:53:02.786Z,2456
2024-01-20T13:54:17.026Z,2434
2024-01-20T13:55:30.281Z,2409
2024-01-20T13:56:44.520Z,2386
2024-01-20T13:57:58.760Z,2363
2024-01-20T13:59:12.999Z,2397
2024-01-20T14:00:27.238Z,2298
2024-01-20T14:01:41.477Z,2339
2024-01-20T14:02:55.716Z,2363
2024-01-20T14:04:09.955Z,2240
2024-01-20T14:05:24.194Z,1934
2024-01-20T14:06:38.433Z,2252
2024-01-20T14:07:52.672Z,2123
2024-01-20T14:09:06.911Z,2048
2024-01-20T14:10:21.150Z,2291
2024-01-20T14:11:34.405Z,1970
2024-01-20T14:12:48.644Z,1973
2024-01-20T14:14:02.884Z,2037
2024-01-20T14:15:17.123Z,2030
2024-01-20T14:16:31.362Z,2011
2024-01-20T14:17:45.601Z,2018
2024-01-20T14:18:59.840Z,1941
2024-01-20T14:20:13.926Z,1933
2024-01-20T14:21:28.318Z,1911
2024-01-20T14:22:42.557Z,1858
2024-01-20T14:23:56.796Z,1795
2024-01-20T14:25:11.035Z,1769
2024-01-20T14:26:25.274Z,1747
2024-01-20T14:27:38.529Z,1749
2024-01-20T14:28:52.768Z,1727
2024-01-20T14:30:07.009Z,1706
2024-01-20T14:31:21.249Z,1667
2024-01-20T14:32:35.488Z,1647
2024-01-20T14:33:49.727Z,1620
2024-01-20T14:35:03.966Z,1590
2024-01-20T14:36:18.205Z,1551
2024-01-20T14:37:32.444Z,1524
2024-01-20T14:38:46.683Z,1504
2024-01-20T14:40:00.923Z,1468
2024-01-20T14:41:15.162Z,1446
2024-01-20T14:42:28.422Z,1412
2024-01-20T14:43:41.683Z,1384
2024-01-20T14:44:54.938Z,1351
2024-01-20T14:46:09.177Z,1324
2024-01-20T14:47:23.416Z,1290
2024-01-20T14:48:37.655Z,1255
2024-01-20T14:49:50.916Z,1225
2024-01-20T14:51:05.155Z,1197
2024-01-20T14:52:19.394Z,1179
2024-01-20T14:53:33.633Z,1152
2024-01-20T14:54:47.872Z,1139
2024-01-20T14:56:02.111Z,1188
2024-01-20T14:57:16.350Z,971
2024-01-20T14:58:30.590Z,986
2024-01-20T14:59:44.829Z,948
2024-01-20T15:00:59.068Z,948
2024-01-20T15:02:13.307Z,921
2024-01-20T15:03:27.546Z,885
2024-01-20T15:04:41.786Z,854
2024-01-20T15:05:55.041Z,826
2024-01-20T15:07:09.280Z,802
2024-01-20T15:08:23.519Z,786
2024-01-20T15:09:37.758Z,738
2024-01-20T15:10:51.997Z,684
2024-01-20T15:12:06.069Z,666
2024-01-20T15:13:20.476Z,691
2024-01-20T15:14:34.715Z,710
2024-01-20T15:15:48.954Z,638
2024-01-20T15:17:03.194Z,557
2024-01-20T15:18:17.433Z,545
2024-01-20T15:19:31.672Z,546
2024-01-20T15:20:45.911Z,496
2024-01-20T15:21:59.167Z,457
2024-01-20T15:23:13.406Z,429
2024-01-20T15:24:27.645Z,407
2024-01-20T15:25:41.884Z,379
2024-01-20T15:26:56.124Z,355
2024-01-20T15:28:10.363Z,328
2024-01-20T15:29:24.602Z,306
2024-01-20T15:30:38.842Z,287
2024-01-20T15:31:53.081Z,260
2024-01-20T15:33:07.320Z,236
2024-01-20T15:34:21.559Z,223
2024-01-20T15:35:35.799Z,204
2024-01-20T15:36:50.038Z,190
2024-01-20T15:38:03.294Z,172
2024-01-20T15:39:17.533Z,150
2024-01-20T15:40:31.772Z,137
2024-01-20T15:41:45.858Z,121
2024-01-20T15:43:00.251Z,107
2024-01-20T15:44:14.323Z,104
2024-01-20T15:45:28.729Z,90
2024-01-20T15:46:42.969Z,78
2024-01-20T15:47:57.208Z,65
2024-01-20T15:49:11.448Z,58
2024-01-20T15:50:25.687Z,50
2024-01-20T15:51:39.926Z,42
2024-01-20T15:52:54.166Z,37
2024-01-20T15:54:07.421Z,29
2024-01-20T15:55:21.660Z,26
2024-01-20T15:56:35.900Z,21
2024-01-20T15:57:50.139Z,17
2024-01-20T15:59:04.379Z,15
2024-01-20T16:00:18.618Z,13
2024-01-20T16:01:32.857Z,5
2024-01-20T16:02:47.097Z,3
2024-01-20T16:04:01.336Z,8
2024-01-20T16:05:15.575Z,6
2024-01-20T16:06:29.815Z,5
2024-01-20T16:07:44.054Z,7
2024-01-20T16:08:58.294Z,2
2024-01-20T16:10:11.549Z,1
2024-01-20T16:11:25.789Z,1
2024-01-20T16:12:40.082Z,0
2024-01-20T16:13:54.376Z,0
2024-01-20T16:15:08.616Z,1
2024-01-20T16:16:22.855Z,1
2024-01-20T16:17:37.094Z,1
2024-01-20T16:18:51.388Z,0
2024-01-20T16:20:05.682Z,0
2024-01-20T16:21:19.975Z,0
2024-01-20T16:22:34.270Z,0
2024-01-20T16:23:48.563Z,0
2024-01-20T16:25:02.857Z,0
2024-01-20T16:26:16.166Z,0
2024-01-20T16:27:30.459Z,0
2024-01-20T16:28:44.753Z,0
2024-01-20T16:29:59.046Z,0
2024-01-20T16:31:13.340Z,0
2024-01-20T16:32:27.633Z,0
2024-01-20T16:33:41.926Z,0
2024-01-20T16:34:56.220Z,0
2024-01-20T16:36:10.513Z,0
2024-01-20T16:37:24.806Z,0
2024-01-20T16:38:39.100Z,0
2024-01-20T16:39:53.393Z,0
2024-01-20T16:41:07.687Z,0
2024-01-20T16:42:20.996Z,0
2024-01-20T16:43:35.290Z,0
2024-01-20T16:44:49.583Z,0
2024-01-20T16:46:03.876Z,0
2024-01-20T16:47:18.170Z,0
2024-01-20T16:48:32.463Z,0
2024-01-20T16:49:46.756Z,0
2024-01-20T16:51:01.050Z,0
2024-01-20T16:52:15.343Z,0
2024-01-20T16:53:29.637Z,0
2024-01-20T16:54:43.930Z,0
2024-01-20T16:55:58.223Z,0
2024-01-20T16:57:12.517Z,0
2024-01-20T16:58:25.826Z,0
2024-01-20T16:59:40.120Z,0
2024-01-20T17:00:54.413Z,0
2024-01-20T17:02:08.706Z,0
2024-01-20T17:03:23.001Z,0
2024-01-20T17:04:37.294Z,0
2024-01-20T17:05:51.588Z,0
2024-01-20T17:07:05.881Z,0
2024-01-20T17:08:20.175Z,0
2024-01-20T17:09:34.468Z,0
2024-01-20T17:10:48.761Z,0
2024-01-20T17:12:03.055Z,0
2024-01-20T17:13:17.348Z,0
2024-01-20T17:14:30.658Z,0
2024-01-20T17:15:44.951Z,0
2024-01-20T17:16:59.245Z,0
2024-01-20T17:18:12.559Z,0
2024-01-20T17:19:25.869Z,0
2024-01-20T17:20:40.162Z,0
2024-01-20T17:21:54.456Z,0
2024-01-20T17:23:08.749Z,0
2024-01-20T17:24:23.042Z,0
2024-01-20T17:25:37.336Z,0
2024-01-20T17:26:51.629Z,0
2024-01-20T17:28:05.923Z,0
2024-01-20T17:29:20.216Z,0
2024-01-20T17:30:34.510Z,0
2024-01-20T17:31:48.803Z,0
2024-01-20T17:33:03.096Z,0
2024-01-20T17:34:17.390Z,0
2024-01-20T17:35:30.699Z,0
2024-01-20T17:36:44.993Z,0